Tiempo atmosférico en la estación meteorológica de Caravaca de La Cruz, Murcia (643 m.)



Fecha
DESCASC
Temp. máxima en grados centígrados (hora)
DESCASC
Temp. mínima en grados centígrados (hora)
DESCASC
Temp. media en grados centígrados
DESCASC
Racha de viento máxima en m/sg (hora)
DESCASC
Velocidad máxima media en intervalos de 10 minutos(hora)
DESCASC
Precipitaciones diarias en mm
DESCASC
Precipitaciones de 00:00 a 06:00 en mm
DESCASC
Precipitaciones de 06:00 a 12:00 en mm
DESCASC
Precipitaciones de 12:00 a 18:00 en mm
DESCASC
Precipitaciones de 18:00 a 24:00 en mm
DESCASC
18-01-2018 14.2 (14:40) 2.6 (04:00) 8.4 7.22 (06:50) 5 (06:50) 0 0 0 0 0
17-01-2018 18.2 (14:30) 3.7 (08:50) 11 8.61 (00:40) 5.28 (00:30) 0 0 0 0 0
16-01-2018 17.1 (15:00) 1.3 (03:40) 9.2 8.61 (10:10) 5 (10:20) 0 0 0 0 0
15-01-2018 9.6 (15:40) 2.5 (23:59) 6.1 6.39 (14:00) 4.72 (23:10) 5.4 5.2 0.2 0 0
14-01-2018 10.6 (12:50) 0.9 (00:00) 5.8 6.67 (06:50) 4.44 (06:50) 8.8 0 0 2 6.8
13-01-2018 10.6 (12:00) -1.1 (-00:0) 4.8 5.83 (06:20) 3.89 (06:20) 0 0 0 0 0
12-01-2018 13.7 (13:20) 2.8 (00:00) 8.2 11.94 (01:30) 4.72 (02:10) 0 0 0 0 0
11-01-2018 11.8 (12:50) 3.6 (00:00) 7.7 -- (--) -- (--) 3.2 0 0 3.2 0
10-01-2018 16 (13:30) 3.2 (00:00) 9.6 -- (--) -- (--) 0.8 0.8 0 0 0
09-01-2018 10.2 (14:40) -1.1 (-00:0) 4.5 7.5 (15:40) 4.17 (01:40) 0 0 0 0 0
08-01-2018 9.7 (13:10) -2.7 (-00:0) 3.5 6.39 (10:00) 4.17 (02:00) 0 0 0 0 0
07-01-2018 9.1 (15:30) -0.9 (-00:0) 4.1 8.06 (09:40) 4.44 (02:20) 0 0 0 0 0
06-01-2018 10.7 (13:20) 1.8 (00:00) 6.2 8.33 (18:40) 4.72 (01:40) 7 0 0 7 0
05-01-2018 17 (15:20) 2.2 (00:00) 9.6 7.78 (09:50) 4.44 (09:50) 0 0 0 0 0
04-01-2018 22 (16:30) 6.2 (01:00) 14.1 6.67 (01:30) 5.28 (01:30) 0 0 0 0 0
03-01-2018 18.6 (14:20) 4.7 (00:00) 11.7 6.39 (05:10) 4.17 (05:00) 0 0 0 0 0
02-01-2018 17.8 (16:40) 4.2 (00:00) 11 -- (--) -- (--) 0 0 0 0 0
01-01-2018 18.3 (15:00) 3.4 (00:00) 10.8 10 (14:30) 5 (11:00) 0 0 0 0 0
31-12-2017 14.8 (15:10) 3.7 (00:00) 9.3 12.78 (20:30) 5.28 (20:50) 0 0 0 0 0
30-12-2017 19.5 (13:50) 5.8 (00:00) 12.7 7.22 (04:10) 4.72 (04:00) 0 0 0 0 0
29-12-2017 19.1 (12:30) 7.7 (00:00) 13.4 10.28 (13:50) 5.56 (13:20) 0 0 0 0 0
28-12-2017 18.6 (14:10) 3.2 (00:00) 10.9 -- (--) -- (--) 0 0 0 0 0
27-12-2017 14.1 (15:50) 4.6 (00:00) 9.4 -- (--) -- (--) 0.2 0 0.2 0 0
26-12-2017 14 (11:20) 3.8 (00:00) 8.9 10.56 (14:50) 5.28 (14:50) 0 0 0 0 0
25-12-2017 14.6 (13:20) -0.3 (00:00) 7.2 6.94 (01:10) 4.44 (01:10) 0 0 0 0 0
24-12-2017 13.7 (13:20) 1.8 (00:00) 7.7 6.11 (11:40) 3.33 (14:20) 0 0 0 0 0

Gráficas

Temp. máximas Temp. mínimas Temp. medias Precipitaciones Rachas de viento máximas Velocidades máximas media en intervalos de 10 minutos

Datos horarios

Fecha y hora oficial Temperatura (ºC) Velocidad del viento (km/h) Dirección del viento Racha (km/h) Dirección de racha Precipitación (mm) Presión (hPa) Tendencia (hPa) Humedad (%)
2018-01-22 23:00:00 10.8 9 Oeste 17 Oeste 0 951.5 1.2 43
2018-01-22 22:00:00 9.8 3 Norte 26 Oeste 0 951.1 1.2 50
2018-01-22 21:00:00 12 15 Oeste 23 Oeste 0 950.7 1.1 46
2018-01-22 20:00:00 13.6 10 Oeste 15 Oeste 0 950.3 0.7 45
2018-01-22 19:00:00 14.7 9 Noroeste 14 Noroeste 0 949.9 0.3 45
2018-01-22 18:00:00 16.7 6 Noroeste 11 Noroeste 0 949.6 0 43
2018-01-22 17:00:00 20.3 5 Este 12 Este 0 949.6 -0.5 31
2018-01-22 16:00:00 20.8 8 Este 17 Nordeste 0 949.6 -1.6 30
2018-01-22 15:00:00 21.6 8 Este 15 Este 0 949.6 -2.4 28
2018-01-22 14:00:00 21.9 6 Este 11 Sudeste 0 950.1 -2.1 25
2018-01-22 13:00:00 22.2 5 Sudeste 14 Sudoeste 0 951.2 -0.8 29
2018-01-22 12:00:00 19.3 8 Sur 21 Sudoeste 0 952 0.2 37
2018-01-22 11:00:00 15.1 13 Sudoeste 26 Sudoeste 0 952.2 0.4 47
2018-01-22 10:00:00 11.3 13 Sudoeste 23 Sudoeste 0 952 0.5 57
2018-01-22 09:00:00 8 15 Oeste 28 Oeste 0 951.8 0.3 67
2018-01-22 08:00:00 7.2 13 Oeste 23 Oeste 0 951.8 0.1 70
2018-01-22 07:00:00 7.6 14 Oeste 28 Sudoeste 0 951.5 -0.6 70
2018-01-22 06:00:00 8.6 17 Oeste 28 Sudoeste 0 951.5 -0.7 67
2018-01-22 05:00:00 9.3 18 Sudoeste 30 Oeste 0 951.7 -0.7 66
2018-01-22 04:00:00 9.9 16 Sudoeste 25 Oeste 0 952.1 -0.4 64
2018-01-22 03:00:00 10.4 8 Oeste 12 Oeste 0 952.2 -0.3 64
2018-01-22 02:00:00 13.5 4 Sudoeste 27 Norte 0 952.4 0.1 52
2018-01-22 01:00:00 14.5 9 Norte 29 Norte 0 952.5 0.6 48
2018-01-22 00:00:00 14.2 7 Oeste 28 Noroeste 0 952.5 0.6 50
2018-01-21 23:00:00 14.5 8 Noroeste 30 Noroeste 0 952.3 0.4 50
2018-01-21 22:00:00 14.8 9 Noroeste 26 Noroeste 0 951.9 0.6 49
2018-01-21 21:00:00 14.5 6 Oeste 26 Oeste 0 951.9 1.3 50
2018-01-21 20:00:00 15 8 Oeste 28 Noroeste 0 951.9 1.6 48
2018-01-21 19:00:00 15.6 9 Noroeste 29 Oeste 0 951.3 1.2 46
2018-01-21 18:00:00 17 10 Noroeste 32 Norte 0 950.6 0.5 41
2018-01-21 17:00:00 18.7 11 Noroeste 30 Norte 0 950.3 -0.3 35
2018-01-21 16:00:00 19.4 10 Norte 44 Norte 0 950.1 -1.5 34
2018-01-21 15:00:00 19.5 17 Norte 35 Norte 0 950.1 -2 32
2018-01-21 14:00:00 20.1 10 Noroeste 28 Norte 0 950.6 -1.6 31
2018-01-21 13:00:00 20.2 11 Norte 33 Norte 0 951.6 -0.3 29
2018-01-21 12:00:00 19.3 14 Oeste 26 Oeste 0 952.1 0.4 32
2018-01-21 11:00:00 18.3 9 Oeste 29 Norte 0 952.2 1.1 35
2018-01-21 10:00:00 15.7 8 Oeste 20 Sudoeste 0 951.9 1.1 42
2018-01-21 09:00:00 11.6 13 Sudoeste 21 Sur 0 951.7 1.5 49
2018-01-21 08:00:00 10.6 6 Sur 15 Sur 0 951.1 0.5 51
2018-01-21 07:00:00 11 8 Este 26 Noroeste 0 950.8 -0.3 47
2018-01-21 06:00:00 12.5 5 Noroeste 24 Noroeste 0 950.2 -1.1 42
2018-01-21 05:00:00 12 9 Oeste 31 Oeste 0 950.6 -0.4 39
2018-01-21 04:00:00 5.2 3 Noroeste 9 Noroeste 0 951.1 0 64
2018-01-21 03:00:00 5.4 5 Noroeste 9 Norte 0 951.3 0.2 63
2018-01-21 02:00:00 7.7 5 Noroeste 15 Sudoeste 0 951 0 51
2018-01-21 01:00:00 10 11 Sudoeste 21 Sudoeste 0 951.1 0.3 41
2018-01-21 00:00:00 9.9 14 Sudoeste 27 Sudoeste 0 951.1 0.7 42
2018-01-20 23:00:00 10.2 15 Sudoeste 24 Oeste 0 951 0.5 40
2018-01-20 22:00:00 10.3 12 Sudoeste 20 Sudoeste 0 950.8 1.2 38
2018-01-20 21:00:00 11.2 12 Sudoeste 19 Sudoeste 0 950.4 0.9 35
2018-01-20 20:00:00 10.1 7 Oeste 10 Sudoeste 0 950.5 1.4 38
2018-01-20 19:00:00 13.5 6 Oeste 22 Oeste 0 949.6 0.6 33
2018-01-20 18:00:00 15.5 6 Noroeste 22 Oeste 0 949.5 0.3 25
2018-01-20 17:00:00 16.8 9 Oeste 26 Oeste 0 949.1 -0.9 28
2018-01-20 16:00:00 18.1 11 Oeste 32 Oeste 0 949 -1.8 23
2018-01-20 15:00:00 18.6 9 Oeste 22 Oeste 0 949.2 -2 22
2018-01-20 14:00:00 18.7 8 Noroeste 27 Noroeste 0 950 -1.8 18
2018-01-20 13:00:00 17.8 11 Noroeste 28 Norte 0 950.8 -0.7 20
2018-01-20 12:00:00 16.6 8 Oeste 30 Oeste 0 951.2 0.2 26
2018-01-20 11:00:00 12.6 10 Sudoeste 24 Sudoeste 0 951.8 1.3 45
2018-01-20 10:00:00 7.6 15 Sudoeste 25 Oeste 0 951.5 1.8 61
2018-01-20 09:00:00 5 15 Oeste 23 Sudoeste 0 951 1.5 69
2018-01-20 08:00:00 4.5 14 Oeste 23 Oeste 0 950.5 1.2 69
2018-01-20 07:00:00 4.2 14 Oeste 22 Oeste 0 949.7 0.3 71
2018-01-20 06:00:00 5.1 10 Oeste 17 Oeste 0 949.5 0.4 71
2018-01-20 05:00:00 3.2 4 Oeste 10 Oeste 0 949.3 0.4 81
2018-01-20 04:00:00 3.6 3 Oeste 5 Nordeste 0 949.4 0.6 79
2018-01-20 03:00:00 5.2 4 Este 13 Oeste 0 949.1 0.3 70
2018-01-20 02:00:00 7 9 Oeste 17 Sudoeste 0 948.9 0.6 64
2018-01-20 01:00:00 7.4 4 Noroeste 19 Oeste 0 948.8 0.7 62
2018-01-20 00:00:00 8 4 Noroeste 16 Sudoeste 0 948.8 1.7 61
2018-01-19 23:00:00 8.6 12 Sudoeste 16 Sudoeste 0 948.3 1.6 60
2018-01-19 22:00:00 6.9 8 Oeste 14 Sudoeste 0 948.1 2.3 70
2018-01-19 21:00:00 5.6 4 Noroeste 10 Oeste 0 947.1 2 77
2018-01-19 20:00:00 7.1 4 Oeste 12 Noroeste 0 946.7 1.9 70
2018-01-19 19:00:00 8.6 6 Oeste 13 Noroeste 0 945.8 1.2 66
2018-01-19 18:00:00 10.8 5 Noroeste 7 Oeste 0 945.1 0.6 61
2018-01-19 17:00:00 13.5 4 Este 13 Nordeste 0 944.8 0.2 45
2018-01-19 16:00:00 13.6 8 Este 13 Nordeste 0 944.6 -0.4 49
2018-01-19 15:00:00 14.2 6 Nordeste 13 Este 0 944.5 -1.2 50
2018-01-19 14:00:00 13.5 3 Este 5 Sudeste 0 944.6 -1.1 49
2018-01-19 13:00:00 12.3 2 Sur 5 Sur 0 945 -0.2 52
2018-01-19 12:00:00 11.3 3 Sudeste 6 Nordeste 0 945.7 1.1 58
2018-01-19 11:00:00 10.4 2 Norte 18 Oeste 0 945.7 1.6 62
2018-01-19 10:00:00 8.9 9 Oeste 21 Oeste 0 945.2 1.5 60
2018-01-19 09:00:00 6.1 7 Oeste 18 Oeste 0 944.6 1.2 73
2018-01-19 08:00:00 4.3 5 Oeste 9 Oeste 0 944.1 0.3 87
2018-01-19 07:00:00 4.9 3 Sur 10 Oeste 0 943.7 -0.1 86
2018-01-19 06:00:00 5.4 5 Noroeste 7 Noroeste 0 943.4 -0.8 85
2018-01-19 05:00:00 5.5 3 Sur 9 Sur 0 943.8 -1.2 84
2018-01-19 04:00:00 5.8 3 Noroeste 11 Oeste 0 943.8 -1.5 82
2018-01-19 03:00:00 6.4 5 Oeste 12 Oeste 0 944.2 -1.5 78
2018-01-19 02:00:00 6.5 6 Oeste 10 Oeste 0 945 -0.8 79
2018-01-19 01:00:00 7 5 Sudoeste 11 Oeste 0 945.3 -0.2 77
2018-01-19 00:00:00 7.5 9 Oeste 15 Oeste 0 945.7 -0.8 76
2018-01-18 23:00:00 6.4 4 Oeste 7 Oeste 0 945.8 -0.7 82
2018-01-18 22:00:00 7 4 Noroeste 8 Sudoeste 0 945.5 -0.6 79
2018-01-18 21:00:00 7.7 3 Noroeste 11 Noroeste 0 946.5 0 77
2018-01-18 20:00:00 8.6 5 Nordeste 10 Norte 0 946.5 -0.1 72
2018-01-18 19:00:00 9.1 5 Norte 12 Norte 0 946.1 -0.2 67
2018-01-18 18:00:00 10.9 5 Nordeste 11 Nordeste 0 946.5 -0.1 60
2018-01-18 17:00:00 12.8 5 Nordeste 12 Este 0 946.6 -1 51
2018-01-18 16:00:00 13.6 6 Este 15 Este 0 946.3 -2.7 48
2018-01-18 15:00:00 13.9 6 Sudeste 13 Sudeste 0 946.6 -3.4 45
2018-01-18 14:00:00 13.7 6 Este 14 Este 0 947.6 -2.9 47
2018-01-18 13:00:00 13.7 4 Este 12 Este 0 949 -1.5 51
2018-01-18 12:00:00 12.4 5 Nordeste 12 Este 0 950 0 56
2018-01-18 11:00:00 9.5 3 Norte 6 Este 0 950.5 0.8 72
2018-01-18 10:00:00 6.3 2 Oeste 6 Norte 0 950.5 1 81
2018-01-18 09:00:00 4.9 4 Noroeste 11 Nordeste 0 950 0.4 83
2018-01-18 08:00:00 4.3 4 Oeste 14 Sudoeste 0 949.7 -0.3 86
2018-01-18 07:00:00 3.4 16 Oeste 26 Sudoeste 0 949.5 -0.5 82
2018-01-18 06:00:00 2.8 6 Oeste 19 Sudoeste 0 949.6 -0.3 87
2018-01-18 05:00:00 3.1 4 Oeste 16 Oeste 0 950 -0.1 83
2018-01-18 04:00:00 2.9 5 Sudoeste 9 Sudoeste 0 950 -0.3 86
2018-01-18 03:00:00 3.4 5 Noroeste 20 Oeste 0 949.9 -0.3 79
2018-01-18 02:00:00 3.2 4 Oeste 17 Oeste 0 950.1 0 78
2018-01-18 01:00:00 4.9 10 Sudoeste 16 Sudoeste 0 950.3 0.2 68
2018-01-18 00:00:00 5.1 9 Oeste 21 Oeste 0 950.2 0.4 65
2018-01-17 23:00:00 5.7 6 Sudoeste 12 Oeste 0 950.1 0.8 65
2018-01-17 22:00:00 6 5 Noroeste 12 Oeste 0 950.1 1.6 65
2018-01-17 21:00:00 6.4 6 Oeste 8 Oeste 0 949.8 1.7 67
2018-01-17 20:00:00 8.1 3 Oeste 10 Sudeste 0 949.3 1.8 63
2018-01-17 19:00:00 10.5 4 Norte 9 Nordeste 0 948.5 0.9 45
2018-01-17 18:00:00 14.6 6 Nordeste 21 Este 0 948.1 0.8 34
2018-01-17 17:00:00 17.6 13 Nordeste 20 Nordeste 0 947.5 -0.5 22
2018-01-17 16:00:00 17.7 10 Nordeste 25 Nordeste 0 947.6 -1 35
2018-01-17 15:00:00 18.1 14 Nordeste -- -- 0 947.3 -2.1 33
2018-01-17 14:00:00 17.6 10 Este 20 Este 0 948 -1.5 38
2018-01-17 13:00:00 17.5 4 Este 10 Sudeste 0 948.6 -0.7 35
2018-01-17 12:00:00 16.3 5 Sudeste 11 Sudeste 0 949.4 0.6 38
2018-01-17 11:00:00 13.1 5 Sudoeste 12 Sudoeste 0 949.5 1 43
2018-01-17 10:00:00 9.1 3 Oeste 12 Sudoeste 0 949.3 1.3 55
2018-01-17 09:00:00 4.2 2 Norte 17 Oeste 0 948.8 0.9 70
2018-01-17 08:00:00 4.7 8 Oeste 23 Oeste 0 948.5 0.3 64
2018-01-17 07:00:00 5.1 12 Oeste 23 Oeste 0 948 -0.6 61
2018-01-17 06:00:00 4.6 8 Oeste 26 Oeste 0 947.9 -0.7 65
2018-01-17 05:00:00 5.3 12 Oeste 24 Oeste 0 948.2 -0.8 65
2018-01-17 04:00:00 6 13 Oeste 26 Oeste 0 948.6 -0.9 64
2018-01-17 03:00:00 6 16 Oeste -- -- 0 948.6 -1.3 67
2018-01-17 02:00:00 6.4 15 Oeste 28 Sudoeste 0 949 -1 68
2018-01-17 01:00:00 6.7 18 Oeste 31 Oeste 0 949.5 -0.6 69
2018-01-17 00:00:00 7.3 14 Oeste 27 Oeste 0 949.9 -0.3 70
2018-01-16 23:00:00 7.6 16 Oeste 24 Oeste 0 950 -0.2 72
2018-01-16 22:00:00 8.2 15 Oeste 22 Oeste 0 950.1 0 72
2018-01-16 21:00:00 8.2 7 Oeste 23 Oeste 0 950.2 0.5 75
2018-01-16 20:00:00 10.2 13 Sudoeste 22 Sudoeste 0 950.2 0.3 67
2018-01-16 19:00:00 11.7 10 Oeste 15 Oeste 0 950.1 0.1 62
2018-01-16 18:00:00 13.2 4 Noroeste 8 Noroeste 0 949.7 -0.7 58
2018-01-16 17:00:00 16.5 4 Sudoeste 14 Sur 0 949.9 -1.5 47
2018-01-16 16:00:00 16.4 8 Sur 26 Sur 0 950 -2 45
2018-01-16 15:00:00 17 9 Sur 25 Sur 0 950.4 -2.7 42
2018-01-16 14:00:00 16.3 8 Sur 19 Sur 0 951.4 -1.7 42
2018-01-16 13:00:00 15.4 9 Sudoeste 21 Sur 0 952 -0.7 43
2018-01-16 12:00:00 13.2 9 Sudoeste 21 Sudoeste 0 953.1 0.8 48
2018-01-16 11:00:00 10.5 10 Oeste 31 Oeste 0 953.1 1 55
2018-01-16 10:00:00 7.1 14 Oeste 27 Sudoeste 0 952.7 0.7 58
2018-01-16 09:00:00 3.6 13 Oeste 24 Oeste 0 952.3 0.5 67
2018-01-16 08:00:00 2.4 15 Oeste 24 Oeste 0 952.1 0.1 68
2018-01-16 07:00:00 2.8 16 Oeste 22 Sudoeste 0 952 -0.4 64
2018-01-16 06:00:00 2.1 15 Oeste 26 Sudoeste 0 951.8 -0.7 67
2018-01-16 05:00:00 1.9 14 Oeste 25 Sudoeste 0 952 -0.8 71
2018-01-16 04:00:00 1.7 13 Oeste 22 Oeste 0 952.4 -0.7 75
2018-01-16 03:00:00 1.6 8 Oeste 17 Sudoeste 0 952.5 -1 78
2018-01-16 02:00:00 2.1 10 Oeste 21 Oeste 0 952.8 -0.3 77
2018-01-16 01:00:00 2.3 10 Oeste 17 Oeste 0 953.1 0 78
2018-01-16 00:00:00 2.5 8 Sudoeste 23 Sudoeste 0 953.5 0.9 78
2018-01-15 23:00:00 2.9 15 Oeste 22 Oeste 0 953.1 1.1 78
2018-01-15 22:00:00 3.6 13 Sudoeste 19 Sudoeste 0 953.1 2.2 77
2018-01-15 21:00:00 4.3 12 Sudoeste 19 Sudoeste 0 952.6 2 75
2018-01-15 20:00:00 4.8 9 Sudoeste 13 Oeste 0 952 1.5 74
2018-01-15 19:00:00 5.7 7 Oeste 13 Oeste 0 950.9 1 70
2018-01-15 18:00:00 7.4 5 Oeste 13 Oeste 0 950.6 0.9 62
2018-01-15 17:00:00 8.9 5 Oeste 17 Oeste 0 950.5 0.6 59
2018-01-15 16:00:00 9.4 4 Noroeste 12 Norte 0 949.9 -0.3 57
2018-01-15 15:00:00 9.1 6 Norte 17 Nordeste 0 949.7 -1 59
2018-01-15 14:00:00 8.5 10 Nordeste 23 Nordeste 0 949.9 -0.1 64
2018-01-15 13:00:00 9.1 9 Este 21 Este 0 950.2 1.2 61
2018-01-15 12:00:00 7.5 8 Este 21 Nordeste 0 950.7 2.3 76
2018-01-15 11:00:00 7.8 8 Nordeste 19 Norte 0 950 2.3 69
2018-01-15 10:00:00 5.9 4 Este 18 Norte 0 949 2 82
2018-01-15 09:00:00 4.1 6 Norte 19 Norte 0 948.4 1.7 85
2018-01-15 08:00:00 3.7 8 Norte 19 Norte 0 947.7 1.4 89
2018-01-15 07:00:00 3 4 Sudoeste 9 Oeste 0.2 947 1 92
2018-01-15 06:00:00 3.2 0 Calma 5 Norte 0.4 946.7 1.2 91
2018-01-15 05:00:00 3.3 5 Sur 12 Norte 2 946.3 0.8 90
2018-01-15 04:00:00 3.6 4 Nordeste 10 Noroeste 0.2 946 0.3 90
2018-01-15 03:00:00 3.5 3 Este 13 Norte 1.2 945.5 0 89
2018-01-15 02:00:00 3.3 5 Sudoeste 12 Oeste 0.4 945.5 0.8 91
2018-01-15 01:00:00 3.4 5 Sudoeste 9 Sudoeste 1 945.7 1.3 91
2018-01-15 00:00:00 3.4 5 Oeste 12 Sur 1.4 945.5 1.6 90
2018-01-14 23:00:00 3.6 4 Oeste 9 Norte 0.8 944.7 1.2 89
2018-01-14 22:00:00 3.6 4 Norte 17 Norte 1.4 944.4 1.5 88
2018-01-14 21:00:00 3.9 8 Nordeste 16 Nordeste 1.8 943.9 1.1 87
2018-01-14 20:00:00 4.5 4 Nordeste 7 Nordeste 1 943.5 1.2 89
2018-01-14 19:00:00 5.1 2 Sudeste 4 Sur 0.4 942.9 0.9 89
2018-01-14 18:00:00 5.5 3 Noroeste 6 Este 0.6 942.8 1 89
2018-01-14 17:00:00 5.8 4 Sudeste 21 Norte 0.2 942.3 0.2 83
2018-01-14 16:00:00 6.5 6 Norte 13 Este 1.2 942 -1 86
2018-01-14 15:00:00 8.1 6 Nordeste 17 Nordeste 0 941.8 -2 63
2018-01-14 14:00:00 9.4 6 Este 14 Sur 0 942.1 -2.1 57
2018-01-14 13:00:00 10.1 4 Este 14 Sur 0 943 -0.9 52
2018-01-14 12:00:00 8.3 5 Sur 22 Sudoeste 0 943.8 0.2 63
2018-01-14 11:00:00 6.1 9 Sudoeste 21 Sudoeste 0 944.2 0.7 68
2018-01-14 10:00:00 4.9 9 Sudoeste 17 Sudoeste 0 943.9 0.2 70
2018-01-14 09:00:00 4.1 7 Sudoeste 19 Oeste 0 943.6 0.4 72
2018-01-14 08:00:00 3.7 8 Oeste 21 Oeste 0 943.5 -0.1 70
2018-01-14 07:00:00 3.2 14 Oeste 24 Sudoeste 0 943.7 0.3 74
2018-01-14 06:00:00 1.4 5 Oeste 12 Sudoeste 0 943.2 -0.1 81
2018-01-14 05:00:00 3.5 8 Sudoeste 15 Sudoeste 0 943.6 0.1 69
2018-01-14 04:00:00 2.4 6 Oeste 12 Noroeste 0 943.4 -0.3 76
2018-01-14 03:00:00 1.4 4 Sudoeste 12 Sudoeste 0 943.3 -0.5 79
2018-01-14 02:00:00 2 6 Noroeste 10 Sudoeste 0 943.5 -0.1 78
2018-01-14 01:00:00 3.2 6 Noroeste 12 Noroeste 0 943.7 0.3 77
2018-01-14 00:00:00 3.9 7 Oeste 12 Sudoeste 0 943.8 0.6 76
2018-01-13 23:00:00 3.4 4 Oeste 12 Noroeste 0 943.6 0.8 80
2018-01-13 22:00:00 4.6 4 Sudoeste 15 Sudoeste 0 943.4 0.9 74
2018-01-13 21:00:00 6.7 7 Sudoeste 17 Sur 0 943.2 0.2 64
2018-01-13 20:00:00 7.7 9 Sudoeste 17 Oeste 0 942.8 -0.2 56
2018-01-13 19:00:00 7.1 5 Sudoeste 10 Oeste 0 942.5 0 60
2018-01-13 18:00:00 7.8 3 Sudeste 11 Nordeste 0 943 0.5 57
2018-01-13 17:00:00 8.7 6 Este 14 Nordeste 0 943 0.2 51
2018-01-13 16:00:00 9.5 7 Este 14 Nordeste 0 942.5 -1.1 48
2018-01-13 15:00:00 9.2 6 Este 11 Este 0 942.5 -2.4 49
2018-01-13 14:00:00 8.8 5 Nordeste 13 Este 0 942.8 -2.5 50
2018-01-13 13:00:00 10.1 5 Sudeste 18 Sudoeste 0 943.6 -1.4 42
2018-01-13 12:00:00 10.4 10 Sudoeste 17 Sudoeste 0 944.9 -0.3 36
2018-01-13 11:00:00 5.2 0 Calma 4 Noroeste 0 945.3 0.3 60
2018-01-13 10:00:00 2.1 2 Nordeste 5 Sudoeste 0 945 0.2 73
2018-01-13 09:00:00 0.4 2 Norte 5 Oeste 0 945.2 0 76
2018-01-13 08:00:00 0.7 6 Oeste 18 Oeste 0 945 -0.7 69
2018-01-13 07:00:00 -0.4 3 Oeste 21 Sudoeste 0 944.8 -1.6 75
2018-01-13 06:00:00 -0.5 2 Oeste 20 Oeste 0 945.2 -1.2 78
2018-01-13 05:00:00 -0.9 4 Sudoeste 12 Sudoeste 0 945.7 -1.2 77
2018-01-13 04:00:00 0.4 3 Oeste 19 Oeste 0 946.4 -1.4 72
2018-01-13 03:00:00 1.8 11 Oeste 17 Oeste 0 946.4 -1.9 64
2018-01-13 02:00:00 2.1 8 Sudoeste 14 Sudoeste 0 946.9 -1.7 66
2018-01-13 01:00:00 3.3 8 Oeste 20 Oeste 0 947.8 -1 64
2018-01-13 00:00:00 4.2 8 Oeste 20 Oeste 0 948.3 -0.5 61
2018-01-12 23:00:00 4.8 8 Oeste 12 Sudoeste 0 948.6 0.1 63
2018-01-12 22:00:00 4.7 6 Sudoeste 12 Noroeste 0 948.8 0.8 63
2018-01-12 21:00:00 4.9 5 Oeste 11 Oeste 0 948.8 1.2 60
2018-01-12 20:00:00 4.5 4 Noroeste 11 Oeste 0 948.5 1.1 59
2018-01-12 19:00:00 7.1 8 Noroeste 11 Noroeste 0 948 0.7 47
2018-01-12 18:00:00 9.2 6 Noroeste 9 Noroeste 0 947.6 0.1 44
2018-01-12 17:00:00 12.2 6 Este 14 Nordeste 0 947.4 -0.8 31
2018-01-12 16:00:00 12.4 8 Este 17 Este 0 947.3 -1.7 30
2018-01-12 15:00:00 12.9 8 Este 18 Este 0 947.5 -2.4 30
2018-01-12 14:00:00 13.3 5 Sudeste 15 Este 0 948.2 -1.5 27
2018-01-12 13:00:00 12.9 10 Sudoeste 23 Sudoeste 0 949 -0.2 33
2018-01-12 12:00:00 12 10 Sudoeste 18 Sudoeste 0 949.9 0.8 35
2018-01-12 11:00:00 10.7 9 Norte 24 Norte 0 949.7 0.8 35
2018-01-12 10:00:00 9 6 Oeste 18 Oeste 0 949.2 0.3 43
2018-01-12 09:00:00 6.4 9 Oeste 18 Oeste 0 949.1 1.3 51
2018-01-12 08:00:00 3.3 9 Oeste 19 Sudoeste 0 948.9 0.6 62
2018-01-12 07:00:00 5.2 16 Sudoeste 35 Norte 0 948.9 0.9 50
2018-01-12 06:00:00 6.9 9 Noroeste 29 Norte 0 947.8 -0.2 43
2018-01-12 05:00:00 6 5 Oeste 21 Sudoeste 0 948.3 0.6 48
2018-01-12 04:00:00 6.9 9 Oeste 37 Noroeste 0 948 -0.3 44
2018-01-12 03:00:00 6.7 12 Oeste 36 Oeste 0 948 -0.6 46
2018-01-12 02:00:00 6.7 16 Oeste 43 Oeste 0 947.7 -0.7 48
2018-01-12 01:00:00 6.2 6 Sur 27 Oeste 0 948.3 0 50
2018-01-12 00:00:00 6.1 7 Oeste 21 Sudoeste 0 948.6 0.5 52
2018-01-11 23:00:00 5.9 5 Oeste 22 Oeste 0 948.4 0.3 52
2018-01-11 22:00:00 6.2 15 Oeste 27 Oeste 0 948.3 1 52
2018-01-11 21:00:00 5.6 10 Oeste 18 Oeste 0 948.1 1.8 59
2018-01-11 20:00:00 4.7 8 Oeste 21 Sur 0 948.1 2 65
2018-01-11 19:00:00 6.4 8 Sur 37 Oeste 0 947.3 1.7 56
2018-01-11 18:00:00 7.2 15 Noroeste 43 Norte 0 946.3 0.6 53
2018-01-11 17:00:00 7.5 15 Noroeste 42 Norte 0 946.1 0.5 53
2018-01-11 16:00:00 8.4 14 Noroeste 39 Noroeste 0 945.6 -0.8 54
2018-01-11 15:00:00 8.7 16 Oeste 42 Noroeste 0 945.7 -1.5 55
2018-01-11 14:00:00 -- 12 Oeste 44 Noroeste 3.2 945.6 -1.2 78
2018-01-11 13:00:00 11.1 14 Noroeste 42 Norte 0 946.4 0.3 44
2018-01-11 12:00:00 10.4 14 Noroeste 41 Oeste 0 947.2 1.5 46
2018-01-11 11:00:00 9.1 17 Oeste 42 Oeste 0 946.8 1.6 51
2018-01-11 10:00:00 9.6 8 Oeste -- -- 0 946.1 1.3 44
2018-01-11 09:00:00 8.4 -- -- -- -- 0 945.7 0.7 43
2018-01-11 08:00:00 7.9 16 Oeste 52 Norte 0 945.2 0.1 43
2018-01-11 07:00:00 7.9 16 Oeste 55 Oeste 0 944.8 -0.7 43
2018-01-11 06:00:00 7.6 16 Oeste 50 Oeste 0 945 -0.6 41
2018-01-11 05:00:00 7.9 11 Oeste 37 Norte 0 945.1 -0.5 43
2018-01-11 04:00:00 8.2 13 Oeste 36 Oeste 0 945.5 0 44
2018-01-11 03:00:00 8.1 11 Oeste 23 Oeste 0 945.6 1.1 50
2018-01-11 02:00:00 8.8 15 Oeste 33 Sudoeste 0 945.6 2 50
2018-01-11 01:00:00 9.4 -- -- -- -- 0 945.5 3.1 49
2018-01-11 00:00:00 10.7 17 Oeste -- -- 0 944.5 1.6 52
2018-01-10 23:00:00 11.3 -- -- -- -- 0 943.6 -0.3 57
2018-01-10 22:00:00 11.3 -- -- -- -- 0 942.4 -1.8 51
2018-01-10 21:00:00 10.6 -- -- -- -- 0 942.9 -1.2 53
2018-01-10 20:00:00 7 5 Noroeste 14 Oeste 0 943.9 -0.2 61
2018-01-10 19:00:00 9.6 7 Sudeste 23 Sudoeste 0 944.2 0.9 50
2018-01-10 18:00:00 11 9 Oeste 29 Oeste 0 944.1 1 45
2018-01-10 17:00:00 13 14 Oeste 32 Oeste 0 944.1 1.1 36
2018-01-10 16:00:00 14.3 18 Oeste 37 Sudoeste 0 943.3 -0.2 33
2018-01-10 15:00:00 14.9 15 Oeste 26 Sudoeste 0 943.1 -0.9 36
2018-01-10 14:00:00 15 15 Sudoeste 27 Sudoeste 0 943 -1.3 37
2018-01-10 13:00:00 14.7 9 Sudeste 20 Este 0 943.5 -0.4 53
2018-01-10 12:00:00 12 4 Este 9 Este 0 944 0.6 61
2018-01-10 11:00:00 9.9 5 Este 11 Sudeste 0 944.3 1.3 68
2018-01-10 10:00:00 8.7 6 Sudoeste 15 Sudoeste 0 943.9 1.5 76
2018-01-10 09:00:00 3.2 4 Oeste 7 Sudoeste 0 943.4 1.3 90
2018-01-10 08:00:00 4.3 2 Sur 8 Sur 0 943 0.8 88
2018-01-10 07:00:00 4.8 2 Sudeste 8 Sur 0 942.4 0.2 87
2018-01-10 06:00:00 6.1 3 Sur 17 Sudoeste 0 942.1 -0.8 82
2018-01-10 05:00:00 6.1 7 Oeste 13 Sudoeste 0 942.2 -1 85
2018-01-10 04:00:00 5.7 11 Sudoeste 21 Sudoeste 0 942.2 -2.1 85
2018-01-10 03:00:00 5.7 14 Sudoeste 26 Sudoeste 0 942.9 -1.7 82
2018-01-10 02:00:00 5.3 13 Sudoeste 22 Oeste 0.4 943.2 -1.6 84
2018-01-10 01:00:00 4.7 10 Oeste 19 Oeste 0.4 944.3 -0.7 85
2018-01-10 00:00:00 5.4 14 Oeste 19 Oeste 0 944.6 -0.5 69
2018-01-09 23:00:00 5.4 7 Sudoeste 12 Sudoeste 0 944.8 -0.3 66
2018-01-09 22:00:00 4.8 8 Oeste 13 Oeste 0 945 0.5 69
2018-01-09 21:00:00 4.7 9 Oeste 17 Oeste 0 945.1 0.8 68
2018-01-09 20:00:00 4.7 4 Sur 13 Oeste 0 945.1 1.2 74
2018-01-09 19:00:00 5.7 4 Sudoeste 5 Sudoeste 0 944.5 1 73
2018-01-09 18:00:00 7.1 2 Sudoeste 8 Nordeste 0 944.3 0.9 65
2018-01-09 17:00:00 8.6 4 Nordeste 16 Sudoeste 0 943.9 -0.1 53
2018-01-09 16:00:00 9.2 13 Sudoeste 27 Oeste 0 943.5 -0.8 54
2018-01-09 15:00:00 9.9 13 Sudoeste 23 Oeste 0 943.4 -1.5 48
2018-01-09 14:00:00 9.7 14 Sudoeste 25 Sudoeste 0 944 -1 51
2018-01-09 13:00:00 9.5 13 Sudoeste 24 Sur 0 944.3 -0.1 54
2018-01-09 12:00:00 8.1 12 Sudoeste 22 Sudoeste 0 944.9 1.1 60
2018-01-09 11:00:00 6.2 13 Sudoeste 23 Oeste 0 945 2 61
2018-01-09 10:00:00 2.6 10 Oeste 21 Oeste 0 944.4 2 70
2018-01-09 09:00:00 -0.1 14 Oeste 21 Oeste 0 943.8 1.9 78
2018-01-09 08:00:00 -1 12 Oeste 21 Sudoeste 0 943 1.2 82
2018-01-09 07:00:00 -0.9 14 Oeste 21 Oeste 0 942.4 0.9 81
2018-01-09 06:00:00 -0.5 3 Noroeste 21 Oeste 0 941.9 0.9 81
2018-01-09 05:00:00 -0.1 15 Oeste 21 Oeste 0 941.8 1.3 80
2018-01-09 04:00:00 0.4 13 Oeste 20 Oeste 0 941.5 1 79
2018-01-09 03:00:00 -0.4 6 Sudoeste 20 Oeste 0 941 0.7 84
2018-01-09 02:00:00 0.4 13 Oeste 22 Oeste 0 940.5 0.5 80
2018-01-09 01:00:00 0.5 13 Oeste 21 Sudoeste 0 940.5 1.2 83
2018-01-09 00:00:00 0.1 0 Calma 19 Oeste 0 940.3 1.3 83
2018-01-08 23:00:00 1.1 13 Oeste 22 Oeste 0 940 1.6 77
2018-01-08 22:00:00 2.1 9 Oeste 14 Oeste 0 939.3 1.5 76
2018-01-08 21:00:00 3 4 Oeste 10 Oeste 0 939 2.2 75
2018-01-08 20:00:00 2.1 2 Oeste 8 Norte 0 938.4 2.1 81
2018-01-08 19:00:00 4.2 4 Noroeste 10 Oeste 0 937.8 2.1 72
2018-01-08 18:00:00 6.2 4 Noroeste 9 Este 0 936.8 1.2 66
2018-01-08 17:00:00 8.3 5 Este 12 Nordeste 0 936.3 0.8 56
2018-01-08 16:00:00 8.7 6 Este 14 Este 0 935.7 0 51
2018-01-08 15:00:00 8.7 9 Nordeste 15 Nordeste 0 935.6 -0.5 54
2018-01-08 14:00:00 9.3 10 Este 16 Este 0 935.5 -0.6 49
2018-01-08 13:00:00 9.3 5 Sudeste 12 Este 0 935.7 0 48
2018-01-08 12:00:00 7.7 4 Este 9 Este 0 936.1 1.1 54
2018-01-08 11:00:00 6.1 3 Sudeste 22 Sudoeste 0 936.1 1.5 54
2018-01-08 10:00:00 1.6 14 Sudoeste 23 Oeste 0 935.7 1.7 69
2018-01-08 09:00:00 -1.3 5 Oeste 17 Oeste 0 935 1.5 84
2018-01-08 08:00:00 -1.7 7 Sudoeste 18 Oeste 0 934.6 1.7 83
2018-01-08 07:00:00 -1.4 12 Oeste 16 Sudoeste 0 934 1.6 87
2018-01-08 06:00:00 -2.1 2 Noroeste 20 Oeste 0 933.5 1.6 86
2018-01-08 05:00:00 -0.9 11 Oeste 18 Oeste 0 932.9 1.2 81
2018-01-08 04:00:00 -0.8 9 Oeste 15 Oeste 0 932.4 0.5 84
2018-01-08 03:00:00 0 6 Sudoeste 20 Oeste 0 931.9 0.2 81
2018-01-08 02:00:00 -0.4 15 Oeste 21 Oeste 0 931.7 0.7 79
2018-01-08 01:00:00 -0.2 9 Oeste 16 Oeste 0 931.9 1.2 77
2018-01-08 00:00:00 -0.9 4 Sudoeste 10 Noroeste 0 931.7 1.2 82
2018-01-07 23:00:00 0.3 6 Sudoeste 13 Sudoeste 0 931 0.7 76
2018-01-07 22:00:00 0.7 5 Noroeste 9 Noroeste 0 930.7 1.1 77
2018-01-07 21:00:00 2.1 4 Oeste 12 Oeste 0 930.5 1.7 69
2018-01-07 20:00:00 2.5 4 Oeste 7 Noroeste 0 930.3 2.3 71
2018-01-07 19:00:00 3.7 4 Oeste 9 Oeste 0 929.6 2 70
2018-01-07 18:00:00 5.9 2 Sur 14 Sur 0 928.8 1.5 57
2018-01-07 17:00:00 8.4 6 Sur 17 Sur 0 928 0.7 44
2018-01-07 16:00:00 9.1 9 Sur 17 Sur 0 927.6 0 38
2018-01-07 15:00:00 8.4 10 Sudoeste 21 Sudoeste 0 927.3 -0.4 41
2018-01-07 14:00:00 7.9 5 Sudoeste 21 Sur 0 927.3 -0.2 46
2018-01-07 13:00:00 7.5 9 Sur 19 Sur 0 927.6 0.8 52
2018-01-07 12:00:00 6.8 9 Sur 22 Sur 0 927.7 1.9 52
2018-01-07 11:00:00 5.8 13 Sudoeste 26 Sudoeste 0 927.5 2.2 58
2018-01-07 10:00:00 4.4 12 Sudoeste 29 Sudoeste 0 926.8 1.8 63
2018-01-07 09:00:00 1.6 10 Sudoeste 21 Oeste 0 925.8 1.2 77
2018-01-07 08:00:00 0.5 8 Sudoeste 19 Sudoeste 0 925.3 0.8 82
2018-01-07 07:00:00 0.9 9 Sudoeste 16 Sudoeste 0 925 0 82
2018-01-07 06:00:00 1.5 7 Oeste 24 Sudoeste 0 924.6 0.2 82
2018-01-07 05:00:00 3.2 10 Sudoeste 19 Oeste 0 924.5 0.4 74
2018-01-07 04:00:00 3.9 7 Sudoeste 16 Sudoeste 0 925 0.7 75
2018-01-07 03:00:00 4.1 10 Sudoeste 25 Sudoeste 0 924.4 0.4 74
2018-01-07 02:00:00 4.3 10 Sudoeste 21 Oeste 0 924.1 0 74
2018-01-07 01:00:00 3.2 8 Sudoeste 20 Sudoeste 0 924.3 1 79
2018-01-07 00:00:00 3.7 13 Sudoeste 23 Sudoeste 0 924 0.7 75
2018-01-06 23:00:00 3 6 Sudoeste 20 Sudoeste 0 924.1 0.9 82
2018-01-06 22:00:00 2.5 4 Noroeste 10 Noroeste 0 923.3 0.9 85
2018-01-06 21:00:00 4.3 3 Sudoeste 15 Sudoeste 0 923.3 1.8 76
2018-01-06 20:00:00 5.1 9 Sudoeste 27 Sudoeste 0 923.2 2.2 68
2018-01-06 19:00:00 5.1 9 Oeste 30 Sudoeste 0 922.4 1.7 72
2018-01-06 18:00:00 6.2 8 Sudoeste 17 Norte 1.2 921.5 0.5 80
2018-01-06 17:00:00 8.6 8 Sudoeste 18 Sur 1 921 -0.7 85
2018-01-06 16:00:00 8.9 7 Sudoeste 17 Sudoeste 0 920.7 -1.9 84
2018-01-06 15:00:00 8.4 2 Sudeste 26 Oeste 4.8 921 -2.7 88
2018-01-06 14:00:00 10.1 9 Sur 27 Sur 0 921.7 -2.9 75
2018-01-06 13:00:00 9.6 8 Sudeste 19 Sur 0 922.6 -2.1 74
2018-01-06 12:00:00 8.7 3 Nordeste 12 Sudeste 0 923.7 -1.7 74
2018-01-06 11:00:00 6.8 4 Este 8 Este 0 924.6 -1.1 81
2018-01-06 10:00:00 5.6 2 Sur 7 Sudoeste 0 924.7 -1.4 80
2018-01-06 09:00:00 3.5 3 Noroeste 8 Sudoeste 0 925.4 -1.3 84
2018-01-06 08:00:00 3.2 3 Sudoeste 8 Sudoeste 0 925.7 -2.2 83
2018-01-06 07:00:00 4.2 4 Noroeste 12 Sudoeste 0 926.1 -2.7 78
2018-01-06 06:00:00 6.8 9 Oeste 15 Oeste 0 926.7 -3 68
2018-01-06 05:00:00 5.9 10 Sudoeste 24 Oeste 0 927.9 -3.3 72
2018-01-06 04:00:00 4.5 5 Noroeste 22 Sudoeste 0 928.8 -3.7 74
2018-01-06 03:00:00 5.4 15 Sudoeste 27 Sudoeste 0 929.7 -3.5 73
2018-01-06 02:00:00 5.2 15 Oeste 26 Sudoeste 0 931.2 -2.5 71
2018-01-06 01:00:00 6.1 14 Oeste 22 Oeste 0 932.5 -1.8 73
2018-01-06 00:00:00 6.4 10 Oeste 19 Sudoeste 0 933.2 -1.7 73
2018-01-05 23:00:00 6.8 11 Oeste 21 Sudoeste 0 933.7 -1.3 70
2018-01-05 22:00:00 6.7 11 Sudoeste 17 Oeste 0 934.3 -1.1 70
2018-01-05 21:00:00 6.1 3 Noroeste 21 Sudoeste 0 934.9 -0.7 71
2018-01-05 20:00:00 10.4 14 Sudoeste 26 Sudoeste 0 935 -1 59
2018-01-05 19:00:00 11.6 13 Sudoeste 24 Sudoeste 0 935.4 -1.2 55
2018-01-05 18:00:00 13.5 10 Sudoeste 19 Sudoeste 0 935.6 -1.4 47
2018-01-05 17:00:00 15.9 9 Sur 18 Sur 0 936 -2.2 41
2018-01-05 16:00:00 16.8 7 Sur 24 Sur 0 936.6 -2.9 38
2018-01-05 15:00:00 16.4 8 Norte 17 Norte 0 937 -4 39
2018-01-05 14:00:00 16.6 6 Oeste 20 Sudoeste 0 938.2 -3.6 37
2018-01-05 13:00:00 15.4 11 Sudoeste 25 Oeste 0 939.5 -2.7 44
2018-01-05 12:00:00 14.2 11 Sudoeste 25 Sudoeste 0 941 -1.3 45
2018-01-05 11:00:00 12.2 9 Sudoeste 25 Oeste 0 941.8 -0.6 51
2018-01-05 10:00:00 9.5 14 Oeste 28 Oeste 0 942.2 -0.8 59
2018-01-05 09:00:00 4.9 8 Oeste 15 Oeste 0 942.3 -1 70
2018-01-05 08:00:00 4.9 9 Oeste 18 Oeste 0 942.4 -1.6 71
2018-01-05 07:00:00 4.3 10 Sudoeste 18 Sudoeste 0 943 -1.6 71
2018-01-05 06:00:00 5.1 8 Oeste 20 Sudoeste 0 943.3 -1.9 74
2018-01-05 05:00:00 5.9 10 Oeste 17 Oeste 0 944 -1.9 80
2018-01-05 04:00:00 5.7 5 Oeste 13 Oeste 0 944.6 -2.3 79
2018-01-05 03:00:00 6.8 10 Sudoeste 17 Oeste 0 945.2 -2.3 75
2018-01-05 02:00:00 7.3 10 Sudoeste 16 Oeste 0 945.9 -1.7 75
2018-01-05 01:00:00 7.5 10 Oeste 18 Oeste 0 946.9 -1.4 74
2018-01-05 00:00:00 6.7 4 Nordeste 12 Oeste 0 947.5 -1 75
2018-01-04 23:00:00 7.3 4 Oeste 11 Oeste 0 947.6 -0.5 72
2018-01-04 22:00:00 8.3 4 Noroeste 7 Noroeste 0 948.3 0 68
2018-01-04 21:00:00 11 3 Nordeste 12 Sur 0 948.5 0.2 61
2018-01-04 20:00:00 13.1 8 Oeste 15 Sudoeste 0 948.1 -0.2 49
2018-01-04 19:00:00 14.4 5 Este 13 Oeste 0 948.3 -0.2 56
2018-01-04 18:00:00 17.7 2 Noroeste 18 Norte 0 948.3 -0.6 44
2018-01-04 17:00:00 21.5 5 Oeste 21 Oeste 0 948.3 -1.3 27
2018-01-04 16:00:00 20.9 4 Sudeste 13 Este 0 948.5 -2.1 36
2018-01-04 15:00:00 20.6 8 Este 16 Este 0 948.9 -2.9 38
2018-01-04 14:00:00 20.5 8 Este 15 Este 0 949.6 -3 39
2018-01-04 13:00:00 20.5 6 Este 14 Este 0 950.6 -2 39
2018-01-04 12:00:00 18.6 4 Este 9 Nordeste 0 951.8 -0.9 40
2018-01-04 11:00:00 16.5 5 Sudeste 15 Oeste 0 952.6 -0.1 44
2018-01-04 10:00:00 11.8 13 Oeste 23 Oeste 0 952.6 -0.1 55
2018-01-04 09:00:00 7.1 13 Oeste 22 Oeste 0 952.7 0.2 70
2018-01-04 08:00:00 7.5 13 Oeste 19 Oeste 0 952.7 -0.1 70
2018-01-04 07:00:00 8.5 5 Oeste 24 Oeste 0 952.7 -0.9 69
2018-01-04 06:00:00 9.7 14 Sudoeste 23 Sudoeste 0 952.5 -1.5 65
2018-01-04 05:00:00 9.2 9 Sudoeste 21 Sudoeste 0 952.8 -0.8 68
2018-01-04 04:00:00 7.1 5 Sudoeste 11 Oeste 0 953.6 -1.3 79
2018-01-04 03:00:00 8.1 5 Sudoeste 15 Sur 0 954 -1.5 75
2018-01-04 02:00:00 10.5 13 Sudoeste -- -- 0 953.6 -1.4 67
2018-01-04 01:00:00 6.3 5 Oeste 10 Noroeste 0 954.9 0.3 85
2018-01-04 00:00:00 7.3 4 Oeste 7 Oeste 0 955.5 0.8 81
2018-01-03 23:00:00 9.3 5 Este 12 Oeste 0 955 0.2 71
2018-01-03 22:00:00 10 2 Oeste 19 Sudoeste 0 954.6 0.2 69
2018-01-03 21:00:00 10.9 9 Oeste 16 Oeste 0 954.7 0.9 66
2018-01-03 20:00:00 10.2 4 Oeste 12 Oeste 0 954.8 0.6 69
2018-01-03 19:00:00 11.9 5 Nordeste 12 Oeste 0 954.4 0.3 66
2018-01-03 18:00:00 15.4 5 Oeste 10 Este 0 953.8 -0.5 54
2018-01-03 17:00:00 18.1 7 Este 14 Sudeste 0 954.2 -0.6 46
2018-01-03 16:00:00 18.3 2 Sudoeste 12 Sudeste 0 954.1 -1.8 44
2018-01-03 15:00:00 18 6 Nordeste 12 Nordeste 0 954.3 -2.8 44
2018-01-03 14:00:00 18 3 Este 11 Sudeste 0 954.8 -2.8 43
2018-01-03 13:00:00 17.6 4 Sudeste 10 Sur 0 955.9 -0.8 44
2018-01-03 12:00:00 15.4 3 Sudeste 9 Nordeste 0 957.1 0.9 51
2018-01-03 11:00:00 13.2 5 Sur 20 Este 0 957.6 1.5 59
2018-01-03 10:00:00 10.4 5 Este 9 Nordeste 0 956.7 0.8 68
2018-01-03 09:00:00 5.2 3 Noroeste 7 Sudoeste 0 956.2 0.8 87
2018-01-03 08:00:00 5.3 3 Sudoeste 9 Oeste 0 956.1 1 84
2018-01-03 07:00:00 5.9 5 Oeste 13 Sudoeste 0 955.9 0.7 80
2018-01-03 06:00:00 8 7 Sudoeste 23 Sudoeste 0 955.4 0 73
2018-01-03 05:00:00 10.1 15 Sudoeste 22 Oeste 0 955.1 -0.4 66
2018-01-03 04:00:00 11.6 12 Oeste 19 Oeste 0 955.2 -0.8 62
2018-01-03 03:00:00 10.3 13 Oeste 20 Sudoeste 0 955.4 -0.8 65
2018-01-03 02:00:00 10.6 14 Sudoeste 21 Oeste 0 955.5 -0.5 63
2018-01-03 01:00:00 7.1 7 Sudoeste 11 Sudoeste 0 956 0.7 74
2018-01-03 00:00:00 7.3 4 Noroeste 10 Noroeste 0 956.2 1.1 74
2018-01-02 23:00:00 8.4 3 Nordeste 13 Oeste 0 956 0.8 70
2018-01-02 22:00:00 12.3 9 Oeste 16 Oeste 0 955.3 -0.1 57
2018-01-02 21:00:00 10.2 6 Oeste 10 Noroeste 0 955.1 0 64
2018-01-02 20:00:00 10.6 5 Sur 13 Sur 0 955.2 0.7 58
2018-01-02 19:00:00 10.6 4 Nordeste 12 Oeste 0 955.4 1.2 54
2018-01-02 18:00:00 13.6 2 Norte 12 Nordeste 0 955.1 0.8 44
2018-01-02 17:00:00 16.7 6 Este 15 Este 0 954.5 -0.1 33
2018-01-02 16:00:00 17.5 5 Este 18 Nordeste 0 954.2 -1.7 28
2018-01-02 15:00:00 17.4 10 Nordeste 17 Nordeste 0 954.3 -2.5 27
2018-01-02 14:00:00 16.4 7 Sur 13 Sur 0 954.6 -2.1 29
2018-01-02 13:00:00 14.8 4 Sudeste 12 Este 0 955.9 -0.4 37
2018-01-02 12:00:00 13.2 6 Este 10 Este 0 956.8 0.9 43
2018-01-02 11:00:00 12.2 3 Este 9 Este 0 956.7 1 48
2018-01-02 10:00:00 9.4 4 Sudeste 8 Oeste 0 956.3 1.2 53
2018-01-02 09:00:00 5.3 7 Noroeste 15 Oeste 0 955.9 1.3 61
2018-01-02 08:00:00 4.9 7 Oeste 15 Oeste 0 955.7 0.7 65
2018-01-02 07:00:00 6.2 9 Oeste 22 Sudoeste 0 955.1 -0.4 60
2018-01-02 06:00:00 8.2 12 Oeste -- -- 0 954.6 -0.8 55
2018-01-02 05:00:00 8.7 -- -- -- -- 0 955 0 56
2018-01-02 04:00:00 8.2 9 Sur 27 Oeste 0 955.5 -0.2 57
2018-01-02 03:00:00 7 4 Sudoeste 26 Oeste 0 955.4 -0.5 59
2018-01-02 02:00:00 10 19 Oeste 28 Oeste 0 955 -0.5 50
2018-01-02 01:00:00 9.5 18 Oeste 30 Oeste 0 955.7 0.4 49
2018-01-02 00:00:00 9.6 17 Oeste 27 Oeste 0 955.9 0.7 49
2018-01-01 23:00:00 8 5 Oeste 14 Oeste 0 955.5 0.6 44
2018-01-01 22:00:00 10.1 9 Oeste 25 Oeste 0 955.3 1 34
2018-01-01 21:00:00 10 10 Oeste 16 Oeste 0 955.2 1.2 27
2018-01-01 20:00:00 10.7 10 Oeste 19 Oeste 0 954.9 0 18
2018-01-01 19:00:00 12.7 11 Sudoeste 24 Sur 0 954.3 0.5 14
2018-01-01 18:00:00 13.7 12 Sur 25 Sur 0 954 -0.4 12
2018-01-01 17:00:00 16.3 8 Sudoeste 33 Sudoeste 0 954.9 -0.4 9
2018-01-01 16:00:00 17.2 17 Oeste 31 Sudoeste 0 953.8 -2.9 8
2018-01-01 15:00:00 18.1 7 Oeste 36 Oeste 0 954.4 -2.9 7
2018-01-01 14:00:00 16.3 7 Este 16 Este 0 955.3 -2.3 19
2018-01-01 13:00:00 16 8 Este 13 Este 0 956.7 -1.4 19
2018-01-01 12:00:00 14.2 8 Sudoeste 22 Sudoeste 0 957.3 -0.1 26
2018-01-01 11:00:00 9.9 18 Sudoeste 27 Sudoeste 0 957.6 1 41
2018-01-01 10:00:00 6.2 16 Oeste 24 Sudoeste 0 958.1 1.5 58
2018-01-01 09:00:00 4.2 13 Oeste 26 Sudoeste 0 957.4 1.1 55
2018-01-01 08:00:00 4.6 15 Oeste 26 Sudoeste 0 956.6 0.6 57
2018-01-01 07:00:00 3.9 6 Oeste 12 Sudoeste 0 956.6 0.6 61
2018-01-01 06:00:00 4.3 5 Oeste 16 Oeste 0 956.3 0.4 61
2018-01-01 05:00:00 5.9 5 Sudoeste 15 Oeste 0 956 1.1 59
2018-01-01 04:00:00 6.2 4 Norte 13 Norte 0 956 1.6 63
2018-01-01 03:00:00 7.5 5 Sudeste 21 Oeste 0 955.9 2.2 59
2018-01-01 02:00:00 10.2 13 Oeste 34 Oeste 0 954.9 2.6 48
2018-01-01 01:00:00 10.8 7 Oeste 31 Oeste 0 954.4 3.6 49
2018-01-01 00:00:00 12.2 9 Noroeste 38 Oeste 0 953.7 4 46
2017-12-31 23:00:00 13.8 16 Oeste -- -- 0 952.3 3.2 48
2017-12-31 22:00:00 13.8 10 Oeste 43 Oeste 0 950.8 2.1 48
2017-12-31 21:00:00 13.6 -- -- -- -- 0 949.7 1.9 50
2017-12-31 20:00:00 12.8 6 Nordeste 18 Nordeste 0 949.1 1.5 53
2017-12-31 19:00:00 13.2 9 Sudoeste 28 Sudoeste 0 948.7 1.5 48
2017-12-31 18:00:00 14.2 8 Oeste 23 Oeste 0 947.8 0.9 45
2017-12-31 17:00:00 13.8 7 Sur 10 Sudoeste 0 947.6 0 48
2017-12-31 16:00:00 14.4 3 Nordeste 6 Norte 0 947.2 -1.3 45
2017-12-31 15:00:00 14.6 3 Este 9 Este 0 946.9 -2.7 47
2017-12-31 14:00:00 13.6 3 Sur 7 Este 0 947.6 -2.2 49
2017-12-31 13:00:00 13.5 4 Este 7 Este 0 948.5 -0.8 51
2017-12-31 12:00:00 14.2 3 Este 7 Este 0 949.6 0.4 37
2017-12-31 11:00:00 12.7 3 Este 9 Sudoeste 0 949.8 0.4 44
2017-12-31 10:00:00 9.9 9 Sudoeste 19 Oeste 0 949.3 0.1 34
2017-12-31 09:00:00 6.2 9 Oeste 16 Oeste 0 949.2 -0.2 48
2017-12-31 08:00:00 5.1 4 Oeste 22 Oeste 0 949.4 -0.5 57
2017-12-31 07:00:00 4.2 7 Oeste 17 Oeste 0 949.2 -1.3 58
2017-12-31 06:00:00 3.7 5 Oeste 15 Oeste 0 949.4 -1.3 75
2017-12-31 05:00:00 5.2 6 Sudoeste 15 Oeste 0 949.9 -1.2 64
2017-12-31 04:00:00 6.2 8 Oeste 22 Oeste 0 950.5 -1.1 64
2017-12-31 03:00:00 4.4 4 Sudoeste 10 Sudoeste 0 950.7 -1.4 84
2017-12-31 02:00:00 5.6 3 Oeste 11 Oeste 0 951.1 -0.7 77
2017-12-31 01:00:00 6.9 7 Oeste 13 Oeste 0 951.6 -0.6 71